Time;durP1;ratioP1;P1;durP2;ratioP2;P2;SDS_P1;SDS_P2;PMS_P1;PMS_P2;Temp;Humidity;BMP_temperature;BMP_pressure;BME280_temperature;BME280_humidity;BME280_pressure;Samples;Min_cycle;Max_cycle;Signal;HPM_P1;HPM_P2
2023/04/27 00:04:00;;;;;;;3.20;2.42;;;10.00;89.70;;;;;;10377765;28;20102;-72
2023/04/27 00:09:01;;;;;;;3.63;2.50;;;9.90;89.60;;;;;;10394683;28;20026;-72
2023/04/27 00:14:01;;;;;;;4.75;2.63;;;9.90;89.60;;;;;;10399958;28;20524;-72
2023/04/27 00:19:03;;;;;;;4.35;2.92;;;10.00;89.70;;;;;;10407904;28;20054;-72
2023/04/27 00:24:04;;;;;;;3.47;2.20;;;9.90;89.70;;;;;;10384455;28;20029;-72
2023/04/27 00:29:04;;;;;;;3.55;2.28;;;9.80;89.60;;;;;;10391091;28;20022;-71
2023/04/27 00:34:05;;;;;;;5.18;2.60;;;9.80;89.70;;;;;;10391969;28;20038;-72
2023/04/27 00:39:06;;;;;;;4.70;2.70;;;9.80;89.60;;;;;;10396393;28;20538;-72
2023/04/27 00:44:06;;;;;;;4.20;2.65;;;9.80;89.70;;;;;;10392924;28;20512;-71
2023/04/27 00:49:07;;;;;;;4.38;2.28;;;9.80;89.70;;;;;;10415216;28;20022;-72
2023/04/27 00:54:09;;;;;;;4.00;2.45;;;9.70;89.60;;;;;;10399530;28;20056;-71
2023/04/27 00:59:09;;;;;;;4.50;2.70;;;9.70;89.70;;;;;;10410847;28;20021;-72
2023/04/27 01:04:10;;;;;;;4.10;2.40;;;9.70;89.70;;;;;;10399336;28;20041;-71
2023/04/27 01:09:11;;;;;;;4.88;2.60;;;9.60;90.10;;;;;;10402698;28;20033;-71
2023/04/27 01:14:11;;;;;;;5.82;2.70;;;9.70;89.70;;;;;;10395425;28;20069;-73
2023/04/27 01:19:12;;;;;;;4.22;2.40;;;9.60;89.60;;;;;;10404759;28;20022;-71
2023/04/27 01:24:13;;;;;;;5.03;2.70;;;9.70;89.70;;;;;;10402530;28;20493;-71
2023/04/27 01:29:13;;;;;;;4.38;2.50;;;9.60;89.70;;;;;;10408433;28;20025;-71
2023/04/27 01:34:14;;;;;;;4.20;2.55;;;9.60;89.70;;;;;;10398431;28;20037;-72
2023/04/27 01:39:15;;;;;;;5.03;2.70;;;9.50;89.60;;;;;;10399881;28;20038;-72
2023/04/27 01:44:15;;;;;;;3.80;2.58;;;10.30;90.00;;;;;;10407590;28;20037;-71
2023/04/27 01:49:16;;;;;;;4.22;2.20;;;9.50;89.70;;;;;;10403879;28;20473;-72
2023/04/27 01:54:16;;;;;;;4.25;2.60;;;9.50;89.70;;;;;;10406284;28;20045;-72
2023/04/27 01:59:17;;;;;;;3.63;2.50;;;9.40;89.60;;;;;;10396057;28;20076;-72
2023/04/27 02:04:18;;;;;;;5.55;2.70;;;9.50;89.70;;;;;;10396908;28;20113;-72
2023/04/27 02:09:18;;;;;;;6.50;2.45;;;9.40;89.60;;;;;;10393319;28;20425;-72
2023/04/27 02:14:19;;;;;;;7.50;3.60;;;9.40;89.60;;;;;;10399839;28;20048;-71
2023/04/27 02:19:20;;;;;;;4.53;2.50;;;9.40;89.60;;;;;;10393307;28;20137;-71
2023/04/27 02:24:21;;;;;;;4.40;2.35;;;9.30;89.60;;;;;;10396087;28;20526;-71
2023/04/27 02:29:21;;;;;;;4.32;2.65;;;9.30;89.60;;;;;;10390021;28;20038;-72
2023/04/27 02:34:28;;;;;;;4.50;2.75;;;9.30;89.70;;;;;;10401156;28;20405;-72
2023/04/27 02:39:28;;;;;;;3.35;2.22;;;9.30;89.70;;;;;;10397813;28;20045;-71
2023/04/27 02:44:29;;;;;;;3.78;2.53;;;9.20;89.70;;;;;;10394215;28;20057;-72
2023/04/27 02:49:30;;;;;;;3.80;2.35;;;9.20;89.70;;;;;;10394914;28;20099;-71
2023/04/27 02:54:31;;;;;;;5.13;2.55;;;9.20;89.70;;;;;;10398055;28;20018;-72
2023/04/27 02:59:32;;;;;;;4.63;2.90;;;9.20;89.70;;;;;;10395463;28;20036;-72
2023/04/27 03:04:32;;;;;;;5.38;2.67;;;9.20;89.70;;;;;;10413290;28;20076;-72
2023/04/27 03:09:33;;;;;;;3.95;2.63;;;9.10;89.70;;;;;;10401803;28;20044;-71
2023/04/27 03:14:34;;;;;;;3.72;2.50;;;9.10;89.70;;;;;;10411229;28;20029;-71
2023/04/27 03:19:34;;;;;;;4.45;2.55;;;9.10;89.70;;;;;;10397768;28;20033;-71
2023/04/27 03:24:35;;;;;;;5.35;2.85;;;9.00;89.60;;;;;;10408406;28;20036;-72
2023/04/27 03:29:36;;;;;;;4.82;2.85;;;9.10;89.60;;;;;;10396944;28;20033;-71
2023/04/27 03:34:36;;;;;;;4.78;3.30;;;9.00;89.60;;;;;;10395450;28;20037;-72
2023/04/27 03:39:37;;;;;;;5.10;2.90;;;9.00;89.60;;;;;;10415265;28;21259;-72
2023/04/27 03:44:37;;;;;;;5.28;3.13;;;9.00;89.60;;;;;;10400410;28;20035;-72
2023/04/27 03:49:39;;;;;;;4.75;2.58;;;9.00;89.60;;;;;;10399253;28;20049;-72
2023/04/27 03:54:40;;;;;;;5.38;2.97;;;9.00;89.60;;;;;;10397661;28;20024;-72
2023/04/27 03:59:41;;;;;;;6.57;3.05;;;8.90;89.50;;;;;;10405472;28;20017;-72
2023/04/27 04:04:41;;;;;;;6.45;3.17;;;9.00;89.60;;;;;;10391876;28;20024;-71
2023/04/27 04:09:43;;;;;;;5.22;2.78;;;8.90;89.60;;;;;;10395093;28;20027;-72
2023/04/27 04:14:47;;;;;;;5.93;3.05;;;8.90;89.50;;;;;;10398883;28;20061;-72
2023/04/27 04:19:48;;;;;;;4.32;2.88;;;8.90;89.50;;;;;;10401958;28;20024;-72
2023/04/27 04:24:48;;;;;;;8.15;3.53;;;8.90;89.60;;;;;;10401780;28;20044;-72
2023/04/27 04:29:49;;;;;;;4.75;3.17;;;8.90;89.60;;;;;;10393837;28;20452;-72
2023/04/27 04:34:50;;;;;;;6.20;3.25;;;8.80;89.50;;;;;;10398232;28;20043;-72
2023/04/27 04:39:51;;;;;;;5.15;2.97;;;8.80;90.00;;;;;;10409114;28;20052;-73
2023/04/27 04:44:52;;;;;;;4.95;3.00;;;8.80;89.50;;;;;;10412953;28;20024;-73
2023/04/27 04:49:52;;;;;;;4.82;3.20;;;8.80;89.50;;;;;;10414435;28;20032;-72
2023/04/27 04:54:53;;;;;;;4.15;2.50;;;8.80;89.50;;;;;;10407086;28;20037;-71
2023/04/27 04:59:53;;;;;;;4.68;3.08;;;8.80;89.40;;;;;;10404000;28;20018;-72
2023/04/27 05:04:56;;;;;;;6.00;3.40;;;8.80;89.40;;;;;;10425879;28;21408;-73
2023/04/27 05:09:56;;;;;;;5.22;3.25;;;8.80;89.40;;;;;;10398928;28;20643;-72
2023/04/27 05:14:57;;;;;;;4.28;2.60;;;8.80;89.40;;;;;;10396564;28;20033;-72
2023/04/27 05:19:57;;;;;;;6.10;3.03;;;8.80;89.40;;;;;;10402830;28;20099;-72
2023/04/27 05:24:58;;;;;;;6.00;3.35;;;8.80;89.30;;;;;;10404322;28;20112;-72
2023/04/27 05:29:59;;;;;;;6.47;3.17;;;8.70;89.20;;;;;;10399372;28;20548;-72
2023/04/27 05:35:00;;;;;;;4.50;2.75;;;8.70;89.30;;;;;;10427758;28;20053;-73
2023/04/27 05:40:00;;;;;;;6.05;3.20;;;8.80;89.30;;;;;;10410795;28;20052;-73
2023/04/27 05:45:02;;;;;;;6.47;3.05;;;8.70;89.20;;;;;;10412743;28;20033;-72
2023/04/27 05:50:03;;;;;;;4.95;3.10;;;8.70;89.20;;;;;;10414151;28;20033;-72
2023/04/27 05:55:06;;;;;;;7.72;3.60;;;8.70;89.30;;;;;;10412458;28;20402;-73
2023/04/27 06:00:09;;;;;;;6.75;2.97;;;8.70;89.30;;;;;;10412059;28;20478;-72
2023/04/27 06:05:10;;;;;;;5.38;3.15;;;8.70;89.30;;;;;;10402453;28;20057;-73
2023/04/27 06:10:13;;;;;;;6.70;3.05;;;8.10;88.90;;;;;;10403151;28;20486;-72
2023/04/27 06:15:13;;;;;;;4.07;2.75;;;8.80;89.40;;;;;;10403216;28;20108;-73
2023/04/27 06:20:14;;;;;;;6.30;2.83;;;8.80;89.30;;;;;;10405912;28;20022;-72
2023/04/27 06:25:15;;;;;;;5.63;3.10;;;8.80;89.40;;;;;;10389937;28;20383;-72
2023/04/27 06:30:15;;;;;;;6.38;3.22;;;9.20;89.50;;;;;;10397320;28;20025;-73
2023/04/27 06:35:17;;;;;;;8.50;2.90;;;8.80;89.30;;;;;;10400447;28;20028;-72
2023/04/27 06:40:18;;;;;;;5.32;3.00;;;9.30;89.60;;;;;;10394951;28;20083;-72
2023/04/27 06:45:18;;;;;;;5.13;2.85;;;8.80;89.30;;;;;;10397402;28;20395;-72
2023/04/27 06:50:19;;;;;;;6.20;2.85;;;8.80;89.40;;;;;;10391321;28;20061;-71
2023/04/27 06:55:20;;;;;;;4.00;2.45;;;8.80;89.30;;;;;;10391046;28;20386;-74
2023/04/27 07:00:20;;;;;;;5.65;2.85;;;8.90;89.40;;;;;;10400570;28;20196;-73
2023/04/27 07:05:21;;;;;;;5.35;2.83;;;9.00;89.40;;;;;;10394068;28;20022;-71
2023/04/27 07:10:22;;;;;;;4.10;2.60;;;8.90;89.40;;;;;;10399339;28;20029;-73
2023/04/27 07:15:23;;;;;;;5.00;2.45;;;8.90;89.30;;;;;;10395166;28;20033;-72
2023/04/27 07:20:24;;;;;;;5.05;2.55;;;9.00;89.40;;;;;;10388626;28;20030;-72
2023/04/27 07:25:25;;;;;;;3.75;2.30;;;9.00;89.40;;;;;;10398283;28;20029;-72
2023/04/27 07:30:29;;;;;;;5.88;2.15;;;9.00;89.50;;;;;;10395576;28;20112;-72
2023/04/27 07:35:30;;;;;;;4.70;2.30;;;9.00;89.50;;;;;;10394509;28;20499;-72
2023/04/27 07:40:31;;;;;;;3.92;2.35;;;9.10;89.50;;;;;;10388686;28;20018;-72
2023/04/27 07:45:32;;;;;;;3.95;2.10;;;9.10;89.50;;;;;;10410858;28;20031;-73
2023/04/27 07:50:33;;;;;;;5.50;2.25;;;9.10;89.40;;;;;;10387439;28;20033;-72
2023/04/27 07:55:33;;;;;;;2.83;2.10;;;9.10;89.40;;;;;;10396597;28;20504;-73
2023/04/27 08:00:34;;;;;;;4.90;1.90;;;9.20;89.50;;;;;;10384502;28;20022;-74
2023/04/27 08:05:34;;;;;;;3.75;2.15;;;9.20;90.00;;;;;;10405264;28;20083;-74
2023/04/27 08:10:36;;;;;;;4.70;2.38;;;9.10;90.10;;;;;;10387510;28;20501;-70
2023/04/27 08:15:37;;;;;;;5.10;2.20;;;9.00;90.30;;;;;;10385734;28;20061;-71
2023/04/27 08:20:38;;;;;;;6.60;2.08;;;9.10;90.20;;;;;;10393321;28;20490;-72
2023/04/27 08:25:38;;;;;;;8.73;1.92;;;9.20;90.20;;;;;;10390055;28;20029;-70
2023/04/27 08:30:41;;;;;;;2.45;1.90;;;9.20;90.10;;;;;;10388971;28;20371;-71
2023/04/27 08:35:42;;;;;;;3.17;1.70;;;9.30;90.10;;;;;;10395867;28;20021;-71
2023/04/27 08:40:42;;;;;;;4.60;1.67;;;9.40;90.00;;;;;;10391547;28;20515;-71
2023/04/27 08:45:48;;;;;;;3.58;2.05;;;9.40;89.90;;;;;;10393981;28;20026;-71
2023/04/27 08:50:50;;;;;;;3.47;1.85;;;9.50;89.80;;;;;;10395288;28;20088;-71
2023/04/27 08:55:51;;;;;;;2.50;1.40;;;9.50;89.60;;;;;;10393931;28;20476;-71
2023/04/27 09:00:52;;;;;;;4.70;1.60;;;9.60;89.50;;;;;;10398823;28;20021;-71
2023/04/27 09:05:52;;;;;;;3.15;2.22;;;9.70;89.40;;;;;;10400219;28;20043;-72
2023/04/27 09:10:55;;;;;;;3.50;1.60;;;9.70;89.20;;;;;;10404464;28;20039;-72
2023/04/27 09:15:56;;;;;;;3.30;1.58;;;9.70;89.00;;;;;;10401073;28;20033;-71
2023/04/27 09:20:57;;;;;;;2.30;1.70;;;9.80;88.90;;;;;;10395447;28;20025;-71
2023/04/27 09:26:08;;;;;;;2.97;1.65;;;10.10;88.90;;;;;;10399410;28;20038;-72
2023/04/27 09:31:16;;;;;;;;;;;9.90;88.60;;;;;;10396275;28;20056;-72
2023/04/27 09:36:17;;;;;;;2.97;1.50;;;10.00;88.40;;;;;;10397713;28;20083;-71
2023/04/27 09:41:22;;;;;;;4.55;2.20;;;10.30;88.50;;;;;;10394647;28;20359;-73
2023/04/27 09:46:23;;;;;;;7.30;2.30;;;10.20;87.50;;;;;;10397211;28;20369;-73
2023/04/27 09:51:23;;;;;;;3.67;2.13;;;10.20;86.80;;;;;;10412310;28;20473;-73
2023/04/27 09:56:39;;;;;;;4.38;2.22;;;10.30;86.00;;;;;;10406446;28;20029;-73
2023/04/27 10:01:50;;;;;;;3.72;2.30;;;10.30;84.80;;;;;;10400133;28;20064;-73
2023/04/27 10:06:56;;;;;;;8.10;2.47;;;10.50;83.70;;;;;;10387710;28;20033;-75
2023/04/27 10:12:15;;;;;;;4.82;2.67;;;10.60;83.20;;;;;;10406818;28;20028;-75
2023/04/27 10:17:16;;;;;;;5.25;2.63;;;10.70;81.80;;;;;;10390316;28;20030;-73
2023/04/27 10:22:17;;;;;;;3.92;2.40;;;10.80;82.40;;;;;;10391399;28;20025;-73
2023/04/27 10:27:20;;;;;;;4.30;3.10;;;10.90;82.10;;;;;;10405114;28;20021;-72
2023/04/27 10:32:24;;;;;;;5.15;2.75;;;11.10;81.50;;;;;;10399739;28;20041;-74
2023/04/27 10:37:41;;;;;;;5.18;2.40;;;11.10;80.20;;;;;;10402637;28;20545;-75
2023/04/27 10:42:48;;;;;;;4.32;2.63;;;11.20;78.70;;;;;;10399153;28;20779;-73
2023/04/27 10:47:48;;;;;;;6.50;2.97;;;12.30;79.60;;;;;;10398665;28;20017;-75
2023/04/27 10:52:50;;;;;;;5.63;3.08;;;11.50;79.00;;;;;;10422761;28;20568;-73
2023/04/27 10:57:52;;;;;;;5.20;2.83;;;11.60;79.20;;;;;;10401182;28;20044;-70
2023/04/27 11:02:55;;;;;;;3.92;2.50;;;11.70;79.20;;;;;;10410328;28;20048;-70
2023/04/27 11:08:11;;;;;;;8.60;3.00;;;11.70;79.40;;;;;;10398124;28;20178;-70
2023/04/27 11:13:14;;;;;;;4.00;2.58;;;11.70;79.20;;;;;;10416420;28;20032;-69
2023/04/27 11:18:17;;;;;;;7.15;2.70;;;11.70;80.00;;;;;;10401049;28;20544;-70
2023/04/27 11:23:35;;;;;;;5.03;2.70;;;11.90;80.40;;;;;;10394220;28;20028;-69
2023/04/27 11:28:36;;;;;;;4.70;2.70;;;11.80;80.20;;;;;;10393850;28;20464;-70
2023/04/27 11:33:39;;;;;;;4.25;2.50;;;12.00;80.60;;;;;;10394503;28;20269;-70
2023/04/27 11:38:41;;;;;;;3.90;2.53;;;11.90;80.50;;;;;;10416475;28;20088;-70
2023/04/27 11:43:48;;;;;;;6.65;2.67;;;11.90;80.40;;;;;;10395405;28;20018;-70
2023/04/27 11:48:48;;;;;;;2.88;2.50;;;12.00;80.40;;;;;;10397674;28;20018;-71
2023/04/27 11:53:50;;;;;;;3.55;2.47;;;12.00;80.40;;;;;;10392517;28;20021;-70
2023/04/27 11:58:51;;;;;;;3.45;2.55;;;12.10;80.50;;;;;;10396898;28;20508;-70
2023/04/27 12:03:52;;;;;;;3.78;2.70;;;12.20;80.40;;;;;;10392036;28;20026;-71
2023/04/27 12:08:56;;;;;;;4.75;2.78;;;12.20;80.30;;;;;;10387920;28;20018;-71
2023/04/27 12:13:57;;;;;;;5.13;2.72;;;12.20;80.30;;;;;;10392135;28;20541;-71
2023/04/27 12:18:58;;;;;;;5.70;2.90;;;12.30;80.20;;;;;;10392413;28;20029;-70
2023/04/27 12:23:59;;;;;;;3.40;2.60;;;12.30;80.10;;;;;;10395028;28;20108;-71
2023/04/27 12:29:03;;;;;;;4.07;2.60;;;12.40;80.10;;;;;;10400601;28;20036;-71
2023/04/27 12:34:03;;;;;;;4.72;2.60;;;12.60;80.90;;;;;;10392867;28;20121;-71
2023/04/27 12:39:19;;;;;;;4.25;2.30;;;12.50;80.10;;;;;;10389955;28;20032;-71
2023/04/27 12:44:20;;;;;;;4.65;2.53;;;12.50;79.80;;;;;;10394207;28;20028;-71
2023/04/27 12:49:20;;;;;;;6.45;2.90;;;12.60;80.10;;;;;;10397385;28;20044;-72
2023/04/27 12:54:21;;;;;;;3.15;2.50;;;12.70;80.00;;;;;;10399061;28;20037;-71
2023/04/27 12:59:21;;;;;;;5.38;2.67;;;12.80;80.00;;;;;;10394732;28;20025;-71
2023/04/27 13:04:22;;;;;;;3.92;2.80;;;12.90;80.00;;;;;;10390280;28;20037;-71
2023/04/27 13:09:23;;;;;;;3.70;2.63;;;12.90;80.00;;;;;;10387687;28;20017;-71
2023/04/27 13:14:23;;;;;;;4.32;2.45;;;12.90;80.10;;;;;;10406994;28;20021;-71
2023/04/27 13:19:24;;;;;;;4.22;2.78;;;12.90;80.50;;;;;;10386857;28;20482;-72
2023/04/27 13:24:28;;;;;;;4.30;2.30;;;13.00;80.70;;;;;;10392425;28;20056;-71
2023/04/27 13:29:31;;;;;;;3.97;2.50;;;13.10;80.90;;;;;;10398240;28;20021;-71
2023/04/27 13:34:32;;;;;;;3.13;2.42;;;13.10;80.90;;;;;;10394617;28;20037;-71
2023/04/27 13:39:33;;;;;;;3.15;2.38;;;13.20;80.80;;;;;;10395408;28;20029;-72
2023/04/27 13:44:33;;;;;;;6.15;2.30;;;13.60;81.00;;;;;;10396853;28;20060;-70
2023/04/27 13:49:34;;;;;;;4.03;2.35;;;13.40;80.60;;;;;;10404163;28;20114;-71
2023/04/27 13:54:35;;;;;;;3.42;2.28;;;13.60;80.70;;;;;;10397762;28;20026;-71
2023/04/27 13:59:35;;;;;;;5.15;2.35;;;13.50;80.50;;;;;;10418197;28;20034;-71
2023/04/27 14:04:36;;;;;;;3.72;2.53;;;13.60;80.40;;;;;;10406747;28;20029;-70
2023/04/27 14:09:37;;;;;;;5.78;3.00;;;13.70;80.30;;;;;;10399411;28;20025;-71
2023/04/27 14:14:37;;;;;;;5.30;2.40;;;13.90;80.20;;;;;;10408852;28;20029;-71
2023/04/27 14:19:39;;;;;;;3.45;2.30;;;13.90;79.90;;;;;;10400287;28;20398;-71
2023/04/27 14:24:40;;;;;;;5.38;2.83;;;14.00;79.70;;;;;;10395838;28;20036;-71
2023/04/27 14:29:40;;;;;;;3.35;2.50;;;14.20;79.70;;;;;;10406265;28;20032;-71
2023/04/27 14:34:41;;;;;;;2.85;2.10;;;14.20;79.40;;;;;;10394935;28;20113;-70
2023/04/27 14:39:42;;;;;;;3.40;2.50;;;14.30;79.50;;;;;;10397802;28;20084;-70
2023/04/27 14:44:42;;;;;;;4.80;2.42;;;14.20;79.70;;;;;;10393669;28;20025;-71
2023/04/27 14:49:43;;;;;;;3.78;2.95;;;14.30;80.00;;;;;;10396159;28;20060;-71
2023/04/27 14:54:43;;;;;;;4.47;2.47;;;14.20;80.30;;;;;;10400008;28;20027;-71
2023/04/27 14:59:44;;;;;;;2.88;2.28;;;14.20;80.50;;;;;;10413792;28;20034;-71
2023/04/27 15:04:45;;;;;;;2.47;2.10;;;14.20;80.90;;;;;;10401247;28;20021;-71
2023/04/27 15:09:45;;;;;;;3.65;2.25;;;14.10;81.10;;;;;;10394269;28;20025;-71
2023/04/27 15:14:47;;;;;;;3.25;2.30;;;14.10;81.30;;;;;;10408282;28;20091;-71
2023/04/27 15:19:47;;;;;;;3.33;2.25;;;14.20;81.50;;;;;;10394828;28;20036;-71
2023/04/27 15:24:48;;;;;;;4.95;2.20;;;14.20;81.70;;;;;;10390355;28;20033;-71
2023/04/27 15:29:48;;;;;;;2.95;2.25;;;14.10;81.80;;;;;;10403773;28;20024;-71
2023/04/27 15:34:50;;;;;;;3.10;2.15;;;14.10;82.00;;;;;;10399379;28;20021;-71
2023/04/27 15:39:51;;;;;;;3.63;2.05;;;14.10;82.00;;;;;;10405392;28;20026;-71
2023/04/27 15:44:51;;;;;;;1.98;1.73;;;14.10;82.20;;;;;;10408056;28;20041;-70
2023/04/27 15:49:52;;;;;;;4.70;2.10;;;14.90;82.80;;;;;;10390298;28;20893;-71
2023/04/27 15:54:53;;;;;;;4.25;2.17;;;14.00;82.50;;;;;;10393870;28;20028;-71
2023/04/27 15:59:54;;;;;;;2.35;1.98;;;14.00;82.80;;;;;;10388684;28;20437;-71
2023/04/27 16:04:57;;;;;;;3.80;2.30;;;14.00;83.00;;;;;;10391882;28;20100;-71
2023/04/27 16:09:58;;;;;;;2.17;1.88;;;14.00;83.10;;;;;;10389449;28;20052;-71
2023/04/27 16:14:59;;;;;;;5.55;2.30;;;14.00;83.20;;;;;;10389742;28;20036;-71
2023/04/27 16:20:00;;;;;;;3.10;2.10;;;14.00;83.40;;;;;;10400776;28;20496;-71
2023/04/27 16:25:02;;;;;;;2.83;2.17;;;14.00;83.50;;;;;;10384121;28;20029;-71
2023/04/27 16:30:05;;;;;;;3.20;2.17;;;14.00;83.70;;;;;;10385515;28;20175;-72
2023/04/27 16:35:06;;;;;;;2.03;1.73;;;14.00;83.80;;;;;;10389275;28;20029;-69
2023/04/27 16:40:08;;;;;;;3.90;1.77;;;14.00;84.00;;;;;;10392834;28;20042;-69
2023/04/27 16:45:08;;;;;;;2.30;1.83;;;14.00;84.10;;;;;;10406529;28;20021;-69
2023/04/27 16:50:10;;;;;;;3.03;1.95;;;14.00;84.30;;;;;;10395454;28;20409;-69
2023/04/27 16:55:11;;;;;;;2.88;2.13;;;13.90;84.30;;;;;;10396923;28;20491;-69
2023/04/27 17:00:12;;;;;;;4.05;2.00;;;14.00;84.50;;;;;;10395524;28;20189;-70
2023/04/27 17:05:13;;;;;;;2.20;1.60;;;13.90;84.60;;;;;;10397993;28;20033;-70
2023/04/27 17:10:15;;;;;;;3.10;1.90;;;13.90;84.70;;;;;;10400016;28;20381;-69
2023/04/27 17:15:17;;;;;;;3.08;1.90;;;13.80;84.90;;;;;;10390194;28;20504;-69
2023/04/27 17:20:18;;;;;;;2.72;1.80;;;13.80;85.00;;;;;;10405827;28;20062;-70
2023/04/27 17:25:19;;;;;;;4.00;2.17;;;13.80;85.10;;;;;;10398546;28;20486;-70
2023/04/27 17:30:19;;;;;;;1.83;1.63;;;13.90;85.30;;;;;;10405145;28;20026;-69
2023/04/27 17:35:20;;;;;;;1.92;1.70;;;13.70;85.30;;;;;;10394184;28;20036;-69
2023/04/27 17:40:21;;;;;;;2.75;1.80;;;13.70;85.40;;;;;;10404671;28;20508;-69
2023/04/27 17:45:23;;;;;;;2.35;1.90;;;13.60;85.50;;;;;;10407199;28;20367;-70
2023/04/27 17:50:24;;;;;;;1.92;1.67;;;13.60;85.50;;;;;;10403534;28;20041;-69
2023/04/27 17:55:25;;;;;;;2.50;1.70;;;13.60;85.60;;;;;;10398657;28;20110;-69
2023/04/27 18:00:26;;;;;;;3.90;2.13;;;13.60;85.70;;;;;;10405843;28;20038;-69
2023/04/27 18:05:26;;;;;;;2.17;1.95;;;13.60;85.70;;;;;;10398985;28;20036;-69
2023/04/27 18:10:27;;;;;;;5.88;3.35;;;13.70;85.90;;;;;;10400920;28;20368;-70
2023/04/27 18:15:28;;;;;;;5.97;2.88;;;13.30;83.60;;;;;;10400148;28;20026;-69
2023/04/27 18:20:28;;;;;;;4.68;2.60;;;13.10;84.30;;;;;;10395313;28;20021;-70
2023/04/27 18:25:29;;;;;;;7.50;2.85;;;13.10;84.40;;;;;;10387228;28;20087;-70
2023/04/27 18:30:30;;;;;;;5.38;2.90;;;13.10;84.50;;;;;;10408553;28;20168;-70
2023/04/27 18:35:30;;;;;;;4.35;2.70;;;13.30;84.60;;;;;;10404771;28;20029;-70
2023/04/27 18:40:31;;;;;;;4.13;2.90;;;13.20;84.60;;;;;;10389617;28;20037;-70
2023/04/27 18:45:33;;;;;;;5.63;2.75;;;13.20;84.70;;;;;;10405450;28;20074;-70
2023/04/27 18:50:33;;;;;;;3.90;2.58;;;13.10;84.80;;;;;;10397415;28;20525;-70
2023/04/27 18:55:34;;;;;;;4.78;3.17;;;13.20;85.00;;;;;;10393905;28;20057;-70
2023/04/27 19:00:37;;;;;;;5.18;3.25;;;13.20;85.00;;;;;;10392219;28;20021;-70
2023/04/27 19:05:44;;;;;;;4.10;2.67;;;13.10;85.10;;;;;;10392420;28;20030;-70
2023/04/27 19:10:45;;;;;;;3.88;2.58;;;13.40;85.40;;;;;;10396823;28;20034;-70
2023/04/27 19:15:45;;;;;;;8.38;2.80;;;13.20;85.50;;;;;;10392041;28;20091;-70
2023/04/27 19:20:46;;;;;;;4.45;2.53;;;13.10;85.60;;;;;;10380562;28;20044;-69
2023/04/27 19:25:47;;;;;;;5.40;2.78;;;13.10;85.70;;;;;;10387422;28;20037;-69
2023/04/27 19:30:48;;;;;;;4.65;2.83;;;13.10;85.90;;;;;;10388799;28;20084;-71
2023/04/27 19:35:48;;;;;;;5.80;3.00;;;13.00;85.90;;;;;;10387392;28;20037;-70
2023/04/27 19:40:49;;;;;;;7.57;2.90;;;13.10;86.20;;;;;;10387149;28;20032;-70
2023/04/27 19:45:50;;;;;;;4.57;2.92;;;12.90;86.30;;;;;;10392175;28;20029;-70
2023/04/27 19:50:50;;;;;;;5.90;3.40;;;12.90;87.00;;;;;;10403344;28;20037;-70
2023/04/27 19:55:51;;;;;;;4.43;2.75;;;12.90;87.10;;;;;;10397244;28;20026;-70
2023/04/27 20:00:52;;;;;;;4.55;3.13;;;12.90;86.70;;;;;;10391336;28;20437;-70
2023/04/27 20:05:52;;;;;;;5.15;2.95;;;12.90;86.90;;;;;;10387800;28;20028;-70
2023/04/27 20:10:53;;;;;;;5.28;3.08;;;12.80;86.90;;;;;;10389849;28;20060;-70
2023/04/27 20:15:54;;;;;;;4.25;2.80;;;12.80;87.20;;;;;;10379883;28;20021;-70
2023/04/27 20:20:54;;;;;;;7.70;2.92;;;13.10;87.50;;;;;;10391112;28;20074;-70
2023/04/27 20:25:55;;;;;;;4.82;2.90;;;12.80;87.60;;;;;;10388781;28;20124;-70
2023/04/27 20:30:56;;;;;;;5.55;2.90;;;12.80;87.60;;;;;;10384594;28;20263;-70
2023/04/27 20:35:57;;;;;;;4.38;3.13;;;12.80;87.90;;;;;;10393182;28;20040;-70
2023/04/27 20:40:59;;;;;;;6.05;3.40;;;12.80;88.00;;;;;;10383866;28;20025;-70
2023/04/27 20:46:00;;;;;;;7.20;2.67;;;12.70;88.10;;;;;;10380754;28;20360;-70
2023/04/27 20:51:01;;;;;;;6.22;3.60;;;12.70;88.20;;;;;;10397139;28;20107;-70
2023/04/27 20:56:02;;;;;;;5.47;3.25;;;12.70;88.40;;;;;;10392430;28;20029;-70
2023/04/27 21:01:03;;;;;;;4.68;3.35;;;12.60;88.60;;;;;;10396316;28;20080;-70
2023/04/27 21:06:04;;;;;;;5.65;3.20;;;12.60;88.70;;;;;;10395341;28;20072;-70
2023/04/27 21:11:05;;;;;;;5.65;3.50;;;12.60;88.80;;;;;;10397558;28;20022;-70
2023/04/27 21:16:06;;;;;;;6.65;3.60;;;12.60;89.00;;;;;;10397977;28;20036;-69
2023/04/27 21:21:06;;;;;;;6.38;3.75;;;12.70;89.20;;;;;;10390155;28;20017;-69
2023/04/27 21:26:08;;;;;;;8.40;4.00;;;12.50;89.20;;;;;;10397974;28;20053;-69
2023/04/27 21:31:08;;;;;;;5.50;3.38;;;12.50;89.30;;;;;;10395496;28;20052;-70
2023/04/27 21:36:09;;;;;;;6.57;3.95;;;12.40;89.40;;;;;;10399463;28;20132;-69
2023/04/27 21:41:10;;;;;;;8.05;3.83;;;12.50;89.60;;;;;;10386227;28;20029;-70
2023/04/27 21:46:11;;;;;;;6.50;3.35;;;12.50;89.80;;;;;;10393632;28;20508;-69
2023/04/27 21:51:11;;;;;;;8.65;3.65;;;12.40;89.80;;;;;;10412684;28;20033;-70
2023/04/27 21:56:22;;;;;;;9.43;4.40;;;12.40;89.90;;;;;;10404425;28;20238;-70
2023/04/27 22:01:25;;;;;;;6.20;3.47;;;12.40;90.00;;;;;;10392810;28;20024;-69
2023/04/27 22:06:32;;;;;;;5.22;2.95;;;12.30;90.00;;;;;;10392238;28;20033;-69
2023/04/27 22:11:32;;;;;;;6.38;3.95;;;12.30;90.00;;;;;;10401809;28;20052;-70
2023/04/27 22:16:33;;;;;;;5.93;3.47;;;12.30;90.00;;;;;;10389363;28;20108;-70
2023/04/27 22:21:34;;;;;;;5.53;3.60;;;12.30;90.00;;;;;;10399623;28;20241;-69
2023/04/27 22:26:35;;;;;;;4.55;2.92;;;12.20;90.00;;;;;;10415359;28;20123;-69
2023/04/27 22:31:36;;;;;;;8.05;3.70;;;12.20;90.00;;;;;;10402223;28;20084;-70
2023/04/27 22:36:36;;;;;;;5.30;3.25;;;12.20;90.10;;;;;;10409693;22;20041;-83
2023/04/27 22:41:37;;;;;;;6.63;3.63;;;12.20;90.10;;;;;;10384307;28;20025;-83
2023/04/27 22:46:38;;;;;;;5.28;3.50;;;12.10;90.10;;;;;;10373478;28;20026;-83
2023/04/27 22:51:39;;;;;;;6.90;3.78;;;12.60;90.20;;;;;;10376342;28;20603;-83
2023/04/27 22:56:39;;;;;;;4.22;3.20;;;12.60;90.30;;;;;;10370258;28;20117;-83
2023/04/27 23:01:40;;;;;;;7.05;4.03;;;12.10;90.20;;;;;;10374499;28;20018;-83
2023/04/27 23:06:41;;;;;;;5.97;3.33;;;12.10;90.20;;;;;;10367876;28;20045;-84
2023/04/27 23:11:41;;;;;;;4.30;3.15;;;12.60;90.30;;;;;;10367572;28;20029;-83
2023/04/27 23:16:43;;;;;;;7.55;3.75;;;12.10;90.20;;;;;;10371427;28;20076;-83
2023/04/27 23:21:43;;;;;;;5.32;3.40;;;12.00;90.10;;;;;;10375772;28;20216;-83
2023/04/27 23:26:44;;;;;;;5.13;3.42;;;12.00;90.20;;;;;;10367398;28;20109;-83
2023/04/27 23:31:45;;;;;;;5.75;3.60;;;12.00;90.20;;;;;;10371237;28;20105;-83
2023/04/27 23:36:45;;;;;;;5.30;3.50;;;12.00;90.20;;;;;;10371297;28;20084;-83
2023/04/27 23:41:46;;;;;;;7.35;3.85;;;12.00;90.20;;;;;;10381869;28;20193;-83
2023/04/27 23:46:47;;;;;;;4.15;3.00;;;11.90;90.20;;;;;;10374663;28;20090;-83
2023/04/27 23:51:48;;;;;;;6.20;3.45;;;12.50;90.40;;;;;;10377283;28;20445;-83
2023/04/27 23:56:50;;;;;;;7.35;3.75;;;12.40;90.40;;;;;;10374219;28;20041;-83
